sensor_id;sensor_type;location;lat;lon;timestamp;temperature;humidity
15656;DHT22;7928;43.614;1.456;2023-03-25T00:02:24;11.40;99.90
15656;DHT22;7928;43.614;1.456;2023-03-25T00:04:52;11.30;99.90
15656;DHT22;7928;43.614;1.456;2023-03-25T00:07:21;11.30;99.90
15656;DHT22;7928;43.614;1.456;2023-03-25T00:09:48;11.30;99.90
15656;DHT22;7928;43.614;1.456;2023-03-25T00:12:16;11.30;99.90
15656;DHT22;7928;43.614;1.456;2023-03-25T00:14:43;11.20;99.90
15656;DHT22;7928;43.614;1.456;2023-03-25T00:17:20;11.20;99.90
15656;DHT22;7928;43.614;1.456;2023-03-25T00:19:47;11.30;99.90
15656;DHT22;7928;43.614;1.456;2023-03-25T00:22:15;11.20;99.90
15656;DHT22;7928;43.614;1.456;2023-03-25T00:24:43;11.20;99.90
15656;DHT22;7928;43.614;1.456;2023-03-25T00:27:11;11.20;99.90
15656;DHT22;7928;43.614;1.456;2023-03-25T00:29:39;11.30;99.90
15656;DHT22;7928;43.614;1.456;2023-03-25T00:32:07;11.30;99.90
15656;DHT22;7928;43.614;1.456;2023-03-25T00:34:34;11.40;99.90
15656;DHT22;7928;43.614;1.456;2023-03-25T00:37:06;11.40;99.90
15656;DHT22;7928;43.614;1.456;2023-03-25T00:39:33;11.40;99.90
15656;DHT22;7928;43.614;1.456;2023-03-25T00:42:02;11.40;99.90
15656;DHT22;7928;43.614;1.456;2023-03-25T00:44:29;11.50;99.90
15656;DHT22;7928;43.614;1.456;2023-03-25T00:46:57;11.50;99.90
15656;DHT22;7928;43.614;1.456;2023-03-25T00:49:24;11.50;99.90
15656;DHT22;7928;43.614;1.456;2023-03-25T00:51:53;11.50;99.90
15656;DHT22;7928;43.614;1.456;2023-03-25T00:54:20;11.50;99.90
15656;DHT22;7928;43.614;1.456;2023-03-25T00:56:47;11.50;99.90
15656;DHT22;7928;43.614;1.456;2023-03-25T00:59:16;11.50;99.90
15656;DHT22;7928;43.614;1.456;2023-03-25T01:01:43;11.50;99.90
15656;DHT22;7928;43.614;1.456;2023-03-25T01:04:10;11.60;99.90
15656;DHT22;7928;43.614;1.456;2023-03-25T01:06:39;11.50;99.90
15656;DHT22;7928;43.614;1.456;2023-03-25T01:09:09;11.60;99.90
15656;DHT22;7928;43.614;1.456;2023-03-25T01:11:38;11.60;99.90
15656;DHT22;7928;43.614;1.456;2023-03-25T01:14:07;11.60;99.90
15656;DHT22;7928;43.614;1.456;2023-03-25T01:16:37;11.60;99.90
15656;DHT22;7928;43.614;1.456;2023-03-25T01:19:04;11.60;99.90
15656;DHT22;7928;43.614;1.456;2023-03-25T01:21:31;11.60;99.90
15656;DHT22;7928;43.614;1.456;2023-03-25T01:24:00;11.70;99.90
15656;DHT22;7928;43.614;1.456;2023-03-25T01:26:27;11.70;99.90
15656;DHT22;7928;43.614;1.456;2023-03-25T01:28:54;11.70;99.90
15656;DHT22;7928;43.614;1.456;2023-03-25T01:31:21;11.70;99.90
15656;DHT22;7928;43.614;1.456;2023-03-25T01:33:51;11.70;99.90
15656;DHT22;7928;43.614;1.456;2023-03-25T01:36:18;11.70;99.90
15656;DHT22;7928;43.614;1.456;2023-03-25T01:38:45;11.70;99.90
15656;DHT22;7928;43.614;1.456;2023-03-25T01:41:15;11.70;99.90
15656;DHT22;7928;43.614;1.456;2023-03-25T01:44:00;11.70;99.90
15656;DHT22;7928;43.614;1.456;2023-03-25T01:46:27;11.80;99.90
15656;DHT22;7928;43.614;1.456;2023-03-25T01:48:56;11.80;99.90
15656;DHT22;7928;43.614;1.456;2023-03-25T01:51:28;11.80;99.90
15656;DHT22;7928;43.614;1.456;2023-03-25T01:53:56;11.80;99.90
15656;DHT22;7928;43.614;1.456;2023-03-25T01:56:26;11.90;99.90
15656;DHT22;7928;43.614;1.456;2023-03-25T01:58:56;11.80;99.90
15656;DHT22;7928;43.614;1.456;2023-03-25T02:01:24;11.90;99.90
15656;DHT22;7928;43.614;1.456;2023-03-25T02:03:53;11.90;99.90
15656;DHT22;7928;43.614;1.456;2023-03-25T02:06:33;11.90;99.90
15656;DHT22;7928;43.614;1.456;2023-03-25T02:09:04;11.90;99.90
15656;DHT22;7928;43.614;1.456;2023-03-25T02:11:33;11.90;99.90
15656;DHT22;7928;43.614;1.456;2023-03-25T02:14:03;11.90;99.90
15656;DHT22;7928;43.614;1.456;2023-03-25T02:16:35;11.90;99.90
15656;DHT22;7928;43.614;1.456;2023-03-25T02:19:33;11.80;99.90
15656;DHT22;7928;43.614;1.456;2023-03-25T02:25:22;11.80;99.90
15656;DHT22;7928;43.614;1.456;2023-03-25T02:28:02;11.80;99.90
15656;DHT22;7928;43.614;1.456;2023-03-25T02:30:50;11.70;99.90
15656;DHT22;7928;43.614;1.456;2023-03-25T02:33:39;11.70;99.90
15656;DHT22;7928;43.614;1.456;2023-03-25T02:36:42;11.70;99.90
15656;DHT22;7928;43.614;1.456;2023-03-25T02:39:18;11.70;99.90
15656;DHT22;7928;43.614;1.456;2023-03-25T02:41:51;11.60;99.90
15656;DHT22;7928;43.614;1.456;2023-03-25T02:44:24;11.50;99.90
15656;DHT22;7928;43.614;1.456;2023-03-25T02:46:56;11.50;99.90
15656;DHT22;7928;43.614;1.456;2023-03-25T02:49:28;11.40;99.90
15656;DHT22;7928;43.614;1.456;2023-03-25T02:51:59;11.40;99.90
15656;DHT22;7928;43.614;1.456;2023-03-25T02:54:30;11.30;99.90
15656;DHT22;7928;43.614;1.456;2023-03-25T02:56:59;11.30;99.90
15656;DHT22;7928;43.614;1.456;2023-03-25T02:59:28;11.20;99.90
15656;DHT22;7928;43.614;1.456;2023-03-25T03:01:59;11.20;99.90
15656;DHT22;7928;43.614;1.456;2023-03-25T03:04:28;11.10;99.90
15656;DHT22;7928;43.614;1.456;2023-03-25T03:06:56;11.10;99.90
15656;DHT22;7928;43.614;1.456;2023-03-25T03:09:38;11.10;99.90
15656;DHT22;7928;43.614;1.456;2023-03-25T03:12:15;11.10;99.90
15656;DHT22;7928;43.614;1.456;2023-03-25T03:14:59;11.10;99.90
15656;DHT22;7928;43.614;1.456;2023-03-25T03:17:37;11.10;99.90
15656;DHT22;7928;43.614;1.456;2023-03-25T03:20:15;11.10;99.90
15656;DHT22;7928;43.614;1.456;2023-03-25T03:22:46;11.10;99.90
15656;DHT22;7928;43.614;1.456;2023-03-25T03:25:22;11.20;99.90
15656;DHT22;7928;43.614;1.456;2023-03-25T03:27:56;11.20;99.90
15656;DHT22;7928;43.614;1.456;2023-03-25T03:30:34;11.20;99.90
15656;DHT22;7928;43.614;1.456;2023-03-25T03:33:10;11.20;99.90
15656;DHT22;7928;43.614;1.456;2023-03-25T03:35:43;11.20;99.90
15656;DHT22;7928;43.614;1.456;2023-03-25T03:38:16;11.20;99.90
15656;DHT22;7928;43.614;1.456;2023-03-25T03:40:51;11.20;99.90
15656;DHT22;7928;43.614;1.456;2023-03-25T03:43:23;11.20;99.90
15656;DHT22;7928;43.614;1.456;2023-03-25T03:45:55;11.20;99.90
15656;DHT22;7928;43.614;1.456;2023-03-25T03:48:27;11.20;99.90
15656;DHT22;7928;43.614;1.456;2023-03-25T03:50:57;11.20;99.90
15656;DHT22;7928;43.614;1.456;2023-03-25T03:53:29;11.20;99.90
15656;DHT22;7928;43.614;1.456;2023-03-25T03:56:02;11.20;99.90
15656;DHT22;7928;43.614;1.456;2023-03-25T03:58:35;11.20;99.90
15656;DHT22;7928;43.614;1.456;2023-03-25T04:01:10;11.20;99.90
15656;DHT22;7928;43.614;1.456;2023-03-25T04:03:42;11.10;99.90
15656;DHT22;7928;43.614;1.456;2023-03-25T04:06:18;11.10;99.90
15656;DHT22;7928;43.614;1.456;2023-03-25T04:08:52;11.20;99.90
15656;DHT22;7928;43.614;1.456;2023-03-25T04:11:26;11.20;99.90
15656;DHT22;7928;43.614;1.456;2023-03-25T04:13:58;11.10;99.90
15656;DHT22;7928;43.614;1.456;2023-03-25T04:16:25;11.10;99.90
15656;DHT22;7928;43.614;1.456;2023-03-25T04:18:53;11.10;99.90
15656;DHT22;7928;43.614;1.456;2023-03-25T04:21:20;11.10;99.90
15656;DHT22;7928;43.614;1.456;2023-03-25T04:23:47;11.10;99.90
15656;DHT22;7928;43.614;1.456;2023-03-25T04:26:16;11.10;99.90
15656;DHT22;7928;43.614;1.456;2023-03-25T04:28:44;11.10;99.90
15656;DHT22;7928;43.614;1.456;2023-03-25T04:31:13;11.10;99.90
15656;DHT22;7928;43.614;1.456;2023-03-25T04:33:42;11.10;99.90
15656;DHT22;7928;43.614;1.456;2023-03-25T04:36:12;11.20;99.90
15656;DHT22;7928;43.614;1.456;2023-03-25T04:38:39;11.20;99.90
15656;DHT22;7928;43.614;1.456;2023-03-25T04:41:10;11.20;99.90
15656;DHT22;7928;43.614;1.456;2023-03-25T04:43:38;11.20;99.90
15656;DHT22;7928;43.614;1.456;2023-03-25T04:46:12;11.20;99.90
15656;DHT22;7928;43.614;1.456;2023-03-25T04:48:39;11.20;99.90
15656;DHT22;7928;43.614;1.456;2023-03-25T04:51:09;11.20;99.90
15656;DHT22;7928;43.614;1.456;2023-03-25T04:53:37;11.20;99.90
15656;DHT22;7928;43.614;1.456;2023-03-25T04:56:05;11.30;99.90
15656;DHT22;7928;43.614;1.456;2023-03-25T04:58:38;11.30;99.90
15656;DHT22;7928;43.614;1.456;2023-03-25T05:01:07;11.30;99.90
15656;DHT22;7928;43.614;1.456;2023-03-25T05:03:35;11.30;99.90
15656;DHT22;7928;43.614;1.456;2023-03-25T05:06:05;11.30;99.90
15656;DHT22;7928;43.614;1.456;2023-03-25T05:08:33;11.30;99.90
15656;DHT22;7928;43.614;1.456;2023-03-25T05:11:00;11.40;99.90
15656;DHT22;7928;43.614;1.456;2023-03-25T05:13:27;11.40;99.90
15656;DHT22;7928;43.614;1.456;2023-03-25T05:15:54;11.40;99.90
15656;DHT22;7928;43.614;1.456;2023-03-25T05:18:23;11.30;99.90
15656;DHT22;7928;43.614;1.456;2023-03-25T05:20:50;11.30;99.90
15656;DHT22;7928;43.614;1.456;2023-03-25T05:23:18;11.30;99.90
15656;DHT22;7928;43.614;1.456;2023-03-25T05:25:47;11.30;99.90
15656;DHT22;7928;43.614;1.456;2023-03-25T05:28:16;11.30;99.90
15656;DHT22;7928;43.614;1.456;2023-03-25T05:30:44;11.30;99.90
15656;DHT22;7928;43.614;1.456;2023-03-25T05:33:14;11.20;99.90
15656;DHT22;7928;43.614;1.456;2023-03-25T05:35:43;11.20;99.90
15656;DHT22;7928;43.614;1.456;2023-03-25T05:38:11;11.20;99.90
15656;DHT22;7928;43.614;1.456;2023-03-25T05:40:43;11.20;99.90
15656;DHT22;7928;43.614;1.456;2023-03-25T05:43:10;11.10;99.90
15656;DHT22;7928;43.614;1.456;2023-03-25T05:45:37;11.10;99.90
15656;DHT22;7928;43.614;1.456;2023-03-25T05:48:05;11.10;99.90
15656;DHT22;7928;43.614;1.456;2023-03-25T05:50:32;11.10;99.90
15656;DHT22;7928;43.614;1.456;2023-03-25T05:53:01;11.10;99.90
15656;DHT22;7928;43.614;1.456;2023-03-25T05:55:28;11.20;99.90
15656;DHT22;7928;43.614;1.456;2023-03-25T05:57:56;11.20;99.90
15656;DHT22;7928;43.614;1.456;2023-03-25T06:00:23;11.20;99.90
15656;DHT22;7928;43.614;1.456;2023-03-25T06:02:50;11.20;99.90
15656;DHT22;7928;43.614;1.456;2023-03-25T06:05:17;11.20;99.90
15656;DHT22;7928;43.614;1.456;2023-03-25T06:07:48;11.20;99.90
15656;DHT22;7928;43.614;1.456;2023-03-25T06:10:18;11.20;99.90
15656;DHT22;7928;43.614;1.456;2023-03-25T06:12:46;11.20;99.90
15656;DHT22;7928;43.614;1.456;2023-03-25T06:15:14;11.20;99.90
15656;DHT22;7928;43.614;1.456;2023-03-25T06:17:46;11.20;99.90
15656;DHT22;7928;43.614;1.456;2023-03-25T06:20:13;11.20;99.90
15656;DHT22;7928;43.614;1.456;2023-03-25T06:22:42;11.30;99.90
15656;DHT22;7928;43.614;1.456;2023-03-25T06:25:10;11.30;99.90
15656;DHT22;7928;43.614;1.456;2023-03-25T06:27:38;11.30;99.90
15656;DHT22;7928;43.614;1.456;2023-03-25T06:30:09;11.30;99.90
15656;DHT22;7928;43.614;1.456;2023-03-25T06:32:37;11.30;99.90
15656;DHT22;7928;43.614;1.456;2023-03-25T06:35:05;11.30;99.90
15656;DHT22;7928;43.614;1.456;2023-03-25T06:37:33;11.20;99.90
15656;DHT22;7928;43.614;1.456;2023-03-25T06:40:01;11.20;99.90
15656;DHT22;7928;43.614;1.456;2023-03-25T06:42:30;11.30;99.90
15656;DHT22;7928;43.614;1.456;2023-03-25T06:44:58;11.30;99.90
15656;DHT22;7928;43.614;1.456;2023-03-25T06:47:27;11.30;99.90
15656;DHT22;7928;43.614;1.456;2023-03-25T06:49:54;11.40;99.90
15656;DHT22;7928;43.614;1.456;2023-03-25T06:52:21;11.40;99.90
15656;DHT22;7928;43.614;1.456;2023-03-25T06:54:48;11.40;99.90
15656;DHT22;7928;43.614;1.456;2023-03-25T06:57:15;11.50;99.90
15656;DHT22;7928;43.614;1.456;2023-03-25T06:59:42;11.50;99.90
15656;DHT22;7928;43.614;1.456;2023-03-25T07:02:11;11.60;99.90
15656;DHT22;7928;43.614;1.456;2023-03-25T07:04:38;11.70;99.90
15656;DHT22;7928;43.614;1.456;2023-03-25T07:07:06;11.70;99.90
15656;DHT22;7928;43.614;1.456;2023-03-25T07:09:33;11.80;99.90
15656;DHT22;7928;43.614;1.456;2023-03-25T07:12:00;11.90;99.90
15656;DHT22;7928;43.614;1.456;2023-03-25T07:14:27;11.90;99.90
15656;DHT22;7928;43.614;1.456;2023-03-25T07:16:54;11.90;99.90
15656;DHT22;7928;43.614;1.456;2023-03-25T07:19:23;12.00;99.90
15656;DHT22;7928;43.614;1.456;2023-03-25T07:21:50;12.00;99.90
15656;DHT22;7928;43.614;1.456;2023-03-25T07:24:17;12.10;99.90
15656;DHT22;7928;43.614;1.456;2023-03-25T07:26:44;12.10;99.90
15656;DHT22;7928;43.614;1.456;2023-03-25T07:29:11;12.10;99.90
15656;DHT22;7928;43.614;1.456;2023-03-25T07:31:38;12.20;99.90
15656;DHT22;7928;43.614;1.456;2023-03-25T07:34:06;12.20;99.90
15656;DHT22;7928;43.614;1.456;2023-03-25T07:36:34;12.30;99.90
15656;DHT22;7928;43.614;1.456;2023-03-25T07:39:01;12.50;99.90
15656;DHT22;7928;43.614;1.456;2023-03-25T07:41:28;12.50;99.90
15656;DHT22;7928;43.614;1.456;2023-03-25T07:43:55;12.70;99.90
15656;DHT22;7928;43.614;1.456;2023-03-25T07:46:22;12.90;99.90
15656;DHT22;7928;43.614;1.456;2023-03-25T07:48:49;12.90;99.90
15656;DHT22;7928;43.614;1.456;2023-03-25T07:51:17;13.00;99.90
15656;DHT22;7928;43.614;1.456;2023-03-25T07:53:45;13.10;99.90
15656;DHT22;7928;43.614;1.456;2023-03-25T07:56:12;13.20;99.90
15656;DHT22;7928;43.614;1.456;2023-03-25T07:58:40;13.10;99.90
15656;DHT22;7928;43.614;1.456;2023-03-25T08:01:08;13.00;99.90
15656;DHT22;7928;43.614;1.456;2023-03-25T08:03:36;13.00;99.90
15656;DHT22;7928;43.614;1.456;2023-03-25T08:06:04;13.00;99.90
15656;DHT22;7928;43.614;1.456;2023-03-25T08:08:32;13.10;99.90
15656;DHT22;7928;43.614;1.456;2023-03-25T08:11:00;13.10;99.90
15656;DHT22;7928;43.614;1.456;2023-03-25T08:13:28;13.20;99.90
15656;DHT22;7928;43.614;1.456;2023-03-25T08:15:55;13.20;99.90
15656;DHT22;7928;43.614;1.456;2023-03-25T08:18:22;13.20;99.90
15656;DHT22;7928;43.614;1.456;2023-03-25T08:20:49;13.20;99.90
15656;DHT22;7928;43.614;1.456;2023-03-25T08:23:16;13.30;99.90
15656;DHT22;7928;43.614;1.456;2023-03-25T08:25:45;13.40;99.90
15656;DHT22;7928;43.614;1.456;2023-03-25T08:28:15;13.50;99.90
15656;DHT22;7928;43.614;1.456;2023-03-25T08:30:46;13.60;99.90
15656;DHT22;7928;43.614;1.456;2023-03-25T08:33:15;13.70;99.90
15656;DHT22;7928;43.614;1.456;2023-03-25T08:35:43;13.70;99.90
15656;DHT22;7928;43.614;1.456;2023-03-25T08:38:10;13.80;99.90
15656;DHT22;7928;43.614;1.456;2023-03-25T08:40:37;13.90;99.90
15656;DHT22;7928;43.614;1.456;2023-03-25T08:43:06;14.00;99.90
15656;DHT22;7928;43.614;1.456;2023-03-25T08:45:34;14.10;99.90
15656;DHT22;7928;43.614;1.456;2023-03-25T08:48:02;14.20;99.90
15656;DHT22;7928;43.614;1.456;2023-03-25T08:50:29;14.30;99.90
15656;DHT22;7928;43.614;1.456;2023-03-25T08:52:57;14.40;99.90
15656;DHT22;7928;43.614;1.456;2023-03-25T08:55:24;14.40;99.90
15656;DHT22;7928;43.614;1.456;2023-03-25T08:57:51;14.60;99.90
15656;DHT22;7928;43.614;1.456;2023-03-25T09:00:18;14.60;99.90
15656;DHT22;7928;43.614;1.456;2023-03-25T09:02:50;14.70;99.90
15656;DHT22;7928;43.614;1.456;2023-03-25T09:05:17;14.70;99.90
15656;DHT22;7928;43.614;1.456;2023-03-25T09:07:45;14.90;99.90
15656;DHT22;7928;43.614;1.456;2023-03-25T09:10:12;15.00;99.90
15656;DHT22;7928;43.614;1.456;2023-03-25T09:12:39;15.20;99.90
15656;DHT22;7928;43.614;1.456;2023-03-25T09:15:08;15.30;99.90
15656;DHT22;7928;43.614;1.456;2023-03-25T09:17:36;15.20;99.90
15656;DHT22;7928;43.614;1.456;2023-03-25T09:20:05;15.30;99.90
15656;DHT22;7928;43.614;1.456;2023-03-25T09:22:33;15.50;99.90
15656;DHT22;7928;43.614;1.456;2023-03-25T09:25:00;15.40;99.90
15656;DHT22;7928;43.614;1.456;2023-03-25T09:27:27;15.50;99.90
15656;DHT22;7928;43.614;1.456;2023-03-25T09:29:54;15.60;99.90
15656;DHT22;7928;43.614;1.456;2023-03-25T09:32:21;15.70;99.90
15656;DHT22;7928;43.614;1.456;2023-03-25T09:34:48;15.70;99.90
15656;DHT22;7928;43.614;1.456;2023-03-25T09:37:17;15.70;99.90
15656;DHT22;7928;43.614;1.456;2023-03-25T09:39:44;15.80;99.90
15656;DHT22;7928;43.614;1.456;2023-03-25T09:45:20;16.10;99.90
15656;DHT22;7928;43.614;1.456;2023-03-25T09:47:54;16.10;99.90
15656;DHT22;7928;43.614;1.456;2023-03-25T09:50:23;16.10;99.90
15656;DHT22;7928;43.614;1.456;2023-03-25T09:52:56;16.20;99.90
15656;DHT22;7928;43.614;1.456;2023-03-25T09:55:29;16.30;99.90
15656;DHT22;7928;43.614;1.456;2023-03-25T09:58:03;16.60;99.90
15656;DHT22;7928;43.614;1.456;2023-03-25T10:00:30;16.50;99.90
15656;DHT22;7928;43.614;1.456;2023-03-25T10:03:13;16.50;99.90
15656;DHT22;7928;43.614;1.456;2023-03-25T10:06:05;16.60;99.90
15656;DHT22;7928;43.614;1.456;2023-03-25T10:08:43;16.70;99.90
15656;DHT22;7928;43.614;1.456;2023-03-25T10:11:17;17.00;99.90
15656;DHT22;7928;43.614;1.456;2023-03-25T10:13:50;17.10;99.90
15656;DHT22;7928;43.614;1.456;2023-03-25T10:16:25;17.20;99.90
15656;DHT22;7928;43.614;1.456;2023-03-25T10:19:08;17.60;99.90
15656;DHT22;7928;43.614;1.456;2023-03-25T10:21:45;18.10;99.90
15656;DHT22;7928;43.614;1.456;2023-03-25T10:24:19;17.80;99.90
15656;DHT22;7928;43.614;1.456;2023-03-25T10:26:51;17.80;99.90
15656;DHT22;7928;43.614;1.456;2023-03-25T10:29:21;18.20;99.90
15656;DHT22;7928;43.614;1.456;2023-03-25T10:31:53;18.80;99.90
15656;DHT22;7928;43.614;1.456;2023-03-25T10:34:28;19.60;99.90
15656;DHT22;7928;43.614;1.456;2023-03-25T10:37:01;20.50;99.90
15656;DHT22;7928;43.614;1.456;2023-03-25T10:39:31;21.80;99.90
15656;DHT22;7928;43.614;1.456;2023-03-25T10:42:15;22.30;99.90
15656;DHT22;7928;43.614;1.456;2023-03-25T10:44:45;23.10;99.90
15656;DHT22;7928;43.614;1.456;2023-03-25T10:47:15;23.30;99.90
15656;DHT22;7928;43.614;1.456;2023-03-25T10:49:44;23.50;99.90
15656;DHT22;7928;43.614;1.456;2023-03-25T10:52:13;23.70;99.90
15656;DHT22;7928;43.614;1.456;2023-03-25T10:54:45;24.50;99.90
15656;DHT22;7928;43.614;1.456;2023-03-25T10:57:17;25.00;99.00
15656;DHT22;7928;43.614;1.456;2023-03-25T10:59:54;24.80;98.10
15656;DHT22;7928;43.614;1.456;2023-03-25T11:02:25;25.20;97.90
15656;DHT22;7928;43.614;1.456;2023-03-25T11:04:55;25.10;97.20
15656;DHT22;7928;43.614;1.456;2023-03-25T11:07:27;24.80;97.70
15656;DHT22;7928;43.614;1.456;2023-03-25T11:10:19;24.50;96.80
15656;DHT22;7928;43.614;1.456;2023-03-25T11:12:48;24.50;97.00
15656;DHT22;7928;43.614;1.456;2023-03-25T11:15:19;24.30;96.90
15656;DHT22;7928;43.614;1.456;2023-03-25T11:17:54;25.00;97.50
15656;DHT22;7928;43.614;1.456;2023-03-25T11:20:26;26.00;96.70
15656;DHT22;7928;43.614;1.456;2023-03-25T11:23:00;26.40;96.00
15656;DHT22;7928;43.614;1.456;2023-03-25T11:25:35;24.90;95.90
15656;DHT22;7928;43.614;1.456;2023-03-25T11:28:10;25.10;95.80
15656;DHT22;7928;43.614;1.456;2023-03-25T11:34:03;27.00;94.40
15656;DHT22;7928;43.614;1.456;2023-03-25T11:36:31;27.60;92.60
15656;DHT22;7928;43.614;1.456;2023-03-25T11:39:00;27.80;92.40
15656;DHT22;7928;43.614;1.456;2023-03-25T11:41:32;27.90;92.10
15656;DHT22;7928;43.614;1.456;2023-03-25T11:44:00;27.70;92.30
15656;DHT22;7928;43.614;1.456;2023-03-25T11:46:28;28.20;92.50
15656;DHT22;7928;43.614;1.456;2023-03-25T11:48:55;28.40;91.40
15656;DHT22;7928;43.614;1.456;2023-03-25T11:51:24;28.10;91.00
15656;DHT22;7928;43.614;1.456;2023-03-25T11:53:55;28.10;90.60
15656;DHT22;7928;43.614;1.456;2023-03-25T11:56:27;28.00;90.00
15656;DHT22;7928;43.614;1.456;2023-03-25T11:58:59;27.50;88.70
15656;DHT22;7928;43.614;1.456;2023-03-25T12:01:28;27.70;88.10
15656;DHT22;7928;43.614;1.456;2023-03-25T12:04:15;27.10;86.70
15656;DHT22;7928;43.614;1.456;2023-03-25T12:06:54;26.70;88.60
15656;DHT22;7928;43.614;1.456;2023-03-25T12:09:23;26.90;89.40
15656;DHT22;7928;43.614;1.456;2023-03-25T12:11:57;26.80;88.60
15656;DHT22;7928;43.614;1.456;2023-03-25T12:14:34;26.30;88.50
15656;DHT22;7928;43.614;1.456;2023-03-25T12:17:10;27.00;88.60
15656;DHT22;7928;43.614;1.456;2023-03-25T12:19:46;27.10;87.10
15656;DHT22;7928;43.614;1.456;2023-03-25T12:22:25;27.10;86.10
15656;DHT22;7928;43.614;1.456;2023-03-25T12:25:08;27.00;87.00
15656;DHT22;7928;43.614;1.456;2023-03-25T12:27:48;26.80;89.10
15656;DHT22;7928;43.614;1.456;2023-03-25T12:30:29;28.00;86.90
15656;DHT22;7928;43.614;1.456;2023-03-25T12:33:04;28.90;85.70
15656;DHT22;7928;43.614;1.456;2023-03-25T12:35:38;28.60;84.50
15656;DHT22;7928;43.614;1.456;2023-03-25T12:38:25;29.40;85.10
15656;DHT22;7928;43.614;1.456;2023-03-25T12:41:13;30.10;81.40
15656;DHT22;7928;43.614;1.456;2023-03-25T12:43:52;29.20;80.40
15656;DHT22;7928;43.614;1.456;2023-03-25T12:46:44;30.10;79.00
15656;DHT22;7928;43.614;1.456;2023-03-25T12:49:29;30.10;79.00
15656;DHT22;7928;43.614;1.456;2023-03-25T12:52:05;30.90;77.30
15656;DHT22;7928;43.614;1.456;2023-03-25T12:54:45;30.80;74.80
15656;DHT22;7928;43.614;1.456;2023-03-25T12:57:26;29.80;73.20
15656;DHT22;7928;43.614;1.456;2023-03-25T13:00:05;29.60;75.30
15656;DHT22;7928;43.614;1.456;2023-03-25T13:02:58;29.90;74.80
15656;DHT22;7928;43.614;1.456;2023-03-25T13:05:35;30.00;73.70
15656;DHT22;7928;43.614;1.456;2023-03-25T13:08:06;29.80;73.40
15656;DHT22;7928;43.614;1.456;2023-03-25T13:10:38;29.90;73.00
15656;DHT22;7928;43.614;1.456;2023-03-25T13:13:11;31.00;71.60
15656;DHT22;7928;43.614;1.456;2023-03-25T13:15:42;31.10;73.00
15656;DHT22;7928;43.614;1.456;2023-03-25T13:18:13;31.80;70.10
15656;DHT22;7928;43.614;1.456;2023-03-25T13:20:47;32.30;69.10
15656;DHT22;7928;43.614;1.456;2023-03-25T13:23:20;32.10;66.60
15656;DHT22;7928;43.614;1.456;2023-03-25T13:25:50;31.50;67.60
15656;DHT22;7928;43.614;1.456;2023-03-25T13:28:22;30.00;67.60
15656;DHT22;7928;43.614;1.456;2023-03-25T13:30:52;28.00;70.00
15656;DHT22;7928;43.614;1.456;2023-03-25T13:33:24;27.30;72.90
15656;DHT22;7928;43.614;1.456;2023-03-25T13:35:54;27.70;72.90
15656;DHT22;7928;43.614;1.456;2023-03-25T13:38:27;28.10;72.10
15656;DHT22;7928;43.614;1.456;2023-03-25T13:41:06;28.70;71.60
15656;DHT22;7928;43.614;1.456;2023-03-25T13:43:38;29.40;70.30
15656;DHT22;7928;43.614;1.456;2023-03-25T13:46:09;29.30;70.50
15656;DHT22;7928;43.614;1.456;2023-03-25T13:48:42;29.10;70.40
15656;DHT22;7928;43.614;1.456;2023-03-25T13:51:12;29.40;68.70
15656;DHT22;7928;43.614;1.456;2023-03-25T13:53:42;28.20;68.90
15656;DHT22;7928;43.614;1.456;2023-03-25T13:56:31;27.00;70.20
15656;DHT22;7928;43.614;1.456;2023-03-25T13:59:13;27.10;71.30
15656;DHT22;7928;43.614;1.456;2023-03-25T14:02:06;27.60;71.30
15656;DHT22;7928;43.614;1.456;2023-03-25T14:10:52;30.70;70.00
15656;DHT22;7928;43.614;1.456;2023-03-25T14:13:24;30.90;67.90
15656;DHT22;7928;43.614;1.456;2023-03-25T14:15:57;30.20;68.10
15656;DHT22;7928;43.614;1.456;2023-03-25T14:18:25;31.20;67.50
15656;DHT22;7928;43.614;1.456;2023-03-25T14:20:58;30.80;66.00
15656;DHT22;7928;43.614;1.456;2023-03-25T14:23:37;29.80;66.30
15656;DHT22;7928;43.614;1.456;2023-03-25T14:26:07;29.00;68.20
15656;DHT22;7928;43.614;1.456;2023-03-25T14:28:36;29.70;68.10
15656;DHT22;7928;43.614;1.456;2023-03-25T14:31:15;30.00;67.30
15656;DHT22;7928;43.614;1.456;2023-03-25T14:34:19;28.80;67.80
15656;DHT22;7928;43.614;1.456;2023-03-25T14:37:22;26.90;69.70
15656;DHT22;7928;43.614;1.456;2023-03-25T14:39:52;28.30;69.80
15656;DHT22;7928;43.614;1.456;2023-03-25T14:42:41;28.90;68.70
15656;DHT22;7928;43.614;1.456;2023-03-25T14:45:39;30.20;68.50
15656;DHT22;7928;43.614;1.456;2023-03-25T14:48:24;31.40;64.80
15656;DHT22;7928;43.614;1.456;2023-03-25T14:51:17;31.80;64.00
15656;DHT22;7928;43.614;1.456;2023-03-25T14:53:51;30.80;64.10
15656;DHT22;7928;43.614;1.456;2023-03-25T14:56:22;30.00;66.40
15656;DHT22;7928;43.614;1.456;2023-03-25T14:58:52;30.70;65.10
15656;DHT22;7928;43.614;1.456;2023-03-25T15:01:29;29.70;63.10
15656;DHT22;7928;43.614;1.456;2023-03-25T15:04:09;28.40;64.90
15656;DHT22;7928;43.614;1.456;2023-03-25T15:06:38;29.00;65.80
15656;DHT22;7928;43.614;1.456;2023-03-25T15:09:08;30.50;65.00
15656;DHT22;7928;43.614;1.456;2023-03-25T15:11:38;31.10;63.40
15656;DHT22;7928;43.614;1.456;2023-03-25T15:14:10;30.50;60.90
15656;DHT22;7928;43.614;1.456;2023-03-25T15:16:56;29.50;61.10
15656;DHT22;7928;43.614;1.456;2023-03-25T15:19:23;28.50;62.90
15656;DHT22;7928;43.614;1.456;2023-03-25T15:22:17;28.50;64.00
15656;DHT22;7928;43.614;1.456;2023-03-25T15:24:56;29.70;63.40
15656;DHT22;7928;43.614;1.456;2023-03-25T15:27:37;28.70;62.70
15656;DHT22;7928;43.614;1.456;2023-03-25T15:30:28;27.10;63.80
15656;DHT22;7928;43.614;1.456;2023-03-25T15:33:11;26.30;65.60
15656;DHT22;7928;43.614;1.456;2023-03-25T15:36:03;26.70;66.40
15656;DHT22;7928;43.614;1.456;2023-03-25T15:38:49;27.40;67.30
15656;DHT22;7928;43.614;1.456;2023-03-25T15:41:44;27.50;65.80
15656;DHT22;7928;43.614;1.456;2023-03-25T15:44:48;26.80;66.60
15656;DHT22;7928;43.614;1.456;2023-03-25T15:47:34;26.80;66.20
15656;DHT22;7928;43.614;1.456;2023-03-25T15:50:29;26.30;67.80
15656;DHT22;7928;43.614;1.456;2023-03-25T15:53:20;26.40;67.00
15656;DHT22;7928;43.614;1.456;2023-03-25T15:55:54;26.20;68.10
15656;DHT22;7928;43.614;1.456;2023-03-25T15:58:29;25.50;68.70
15656;DHT22;7928;43.614;1.456;2023-03-25T16:01:14;25.00;68.50
15656;DHT22;7928;43.614;1.456;2023-03-25T16:03:43;24.80;69.70
15656;DHT22;7928;43.614;1.456;2023-03-25T16:06:14;24.90;69.90
15656;DHT22;7928;43.614;1.456;2023-03-25T16:08:45;24.20;70.40
15656;DHT22;7928;43.614;1.456;2023-03-25T16:11:15;23.80;71.50
15656;DHT22;7928;43.614;1.456;2023-03-25T16:14:01;23.80;72.70
15656;DHT22;7928;43.614;1.456;2023-03-25T16:16:29;23.60;72.10
15656;DHT22;7928;43.614;1.456;2023-03-25T16:19:01;23.30;72.70
15656;DHT22;7928;43.614;1.456;2023-03-25T16:21:29;23.70;74.10
15656;DHT22;7928;43.614;1.456;2023-03-25T16:24:01;23.90;72.70
15656;DHT22;7928;43.614;1.456;2023-03-25T16:26:34;24.00;72.90
15656;DHT22;7928;43.614;1.456;2023-03-25T16:29:18;24.40;73.10
15656;DHT22;7928;43.614;1.456;2023-03-25T16:32:03;25.00;72.40
15656;DHT22;7928;43.614;1.456;2023-03-25T16:34:33;25.40;71.70